Time;durP1;ratioP1;P1;durP2;ratioP2;P2;SDS_P1;SDS_P2;PMS_P1;PMS_P2;Temp;Humidity;BMP_temperature;BMP_pressure;BME280_temperature;BME280_humidity;BME280_pressure;Samples;Min_cycle;Max_cycle;Signal;HPM_P1;HPM_P2
2022/03/25 00:00:19;;;;;;;20.37;10.50;;;3.70;99.90;;;;;;5060960;28;20430;-77
2022/03/25 00:02:45;;;;;;;16.50;10.60;;;3.60;99.90;;;;;;5030629;28;20033;-77
2022/03/25 00:05:11;;;;;;;16.87;10.27;;;3.60;99.90;;;;;;5038968;28;20583;-77
2022/03/25 00:07:37;;;;;;;18.03;11.23;;;3.60;99.90;;;;;;5051858;28;20035;-77
2022/03/25 00:10:04;;;;;;;19.17;10.40;;;3.50;99.90;;;;;;5051151;28;20024;-77
2022/03/25 00:12:30;;;;;;;18.50;10.67;;;3.50;99.90;;;;;;5051518;28;20025;-78
2022/03/25 00:14:55;;;;;;;18.27;10.57;;;3.50;99.90;;;;;;5050774;28;20037;-78
2022/03/25 00:17:21;;;;;;;17.43;10.23;;;3.40;99.90;;;;;;5051442;28;20384;-78
2022/03/25 00:19:46;;;;;;;18.37;11.13;;;3.40;99.90;;;;;;5051918;28;20029;-78
2022/03/25 00:22:12;;;;;;;19.00;11.60;;;3.40;99.90;;;;;;5050555;28;20316;-78
2022/03/25 00:24:37;;;;;;;16.10;9.53;;;3.40;99.90;;;;;;5051094;28;20059;-78
2022/03/25 00:27:04;;;;;;;20.47;11.27;;;3.30;99.90;;;;;;5051793;28;20048;-78
2022/03/25 00:29:29;;;;;;;18.70;10.90;;;3.30;99.90;;;;;;5051553;28;20017;-78
2022/03/25 00:31:55;;;;;;;18.13;10.20;;;3.30;99.90;;;;;;5050457;28;20032;-78
2022/03/25 00:34:20;;;;;;;19.07;10.87;;;3.20;99.90;;;;;;5051358;28;20060;-78
2022/03/25 00:36:46;;;;;;;19.13;11.23;;;3.20;99.90;;;;;;5051461;28;20025;-78
2022/03/25 00:39:12;;;;;;;18.20;11.60;;;3.10;99.90;;;;;;5051433;28;20557;-78
2022/03/25 00:41:37;;;;;;;18.67;10.57;;;3.10;99.90;;;;;;5051414;28;20025;-78
2022/03/25 00:44:05;;;;;;;21.73;10.83;;;3.10;99.90;;;;;;5050360;28;20424;-78
2022/03/25 00:46:31;;;;;;;19.90;10.70;;;3.00;99.90;;;;;;5051412;28;20048;-78
2022/03/25 00:48:57;;;;;;;20.50;11.47;;;3.00;99.90;;;;;;5051416;28;20017;-78
2022/03/25 00:51:22;;;;;;;19.20;11.50;;;3.00;99.90;;;;;;5049978;28;20029;-78
2022/03/25 00:53:48;;;;;;;16.57;10.87;;;3.00;99.90;;;;;;5049992;28;20025;-78
2022/03/25 00:56:14;;;;;;;19.13;10.57;;;2.90;99.90;;;;;;5051669;28;20067;-78
2022/03/25 00:58:39;;;;;;;19.10;10.00;;;2.90;99.90;;;;;;5045363;28;20025;-78
2022/03/25 01:01:05;;;;;;;16.43;10.40;;;2.80;99.90;;;;;;5031216;28;20030;-78
2022/03/25 01:03:31;;;;;;;21.27;10.43;;;2.80;99.90;;;;;;5038369;28;20021;-78
2022/03/25 01:05:57;;;;;;;17.20;10.70;;;2.70;99.90;;;;;;5051279;28;20014;-78
2022/03/25 01:08:23;;;;;;;15.70;10.30;;;2.60;99.90;;;;;;5049808;28;20577;-78
2022/03/25 01:10:48;;;;;;;19.53;12.03;;;2.60;99.90;;;;;;5066327;28;20124;-78
2022/03/25 01:13:14;;;;;;;18.50;10.83;;;2.60;99.90;;;;;;5051388;28;20055;-78
2022/03/25 01:15:40;;;;;;;25.53;10.77;;;2.60;99.90;;;;;;5050119;28;20021;-77
2022/03/25 01:18:06;;;;;;;19.87;11.77;;;2.60;99.90;;;;;;5050729;28;20029;-79
2022/03/25 01:20:32;;;;;;;24.63;11.47;;;2.60;99.90;;;;;;5050208;28;20056;-78
2022/03/25 01:22:57;;;;;;;21.17;11.50;;;2.60;99.90;;;;;;5049135;28;20032;-78
2022/03/25 01:25:24;;;;;;;18.47;11.03;;;2.60;99.90;;;;;;5054267;28;20028;-79
2022/03/25 01:27:49;;;;;;;21.50;11.80;;;2.60;99.90;;;;;;5054507;28;20021;-79
2022/03/25 01:30:15;;;;;;;20.13;10.87;;;2.60;99.90;;;;;;5054536;28;20021;-79
2022/03/25 01:32:41;;;;;;;20.20;11.03;;;2.60;99.90;;;;;;5054586;28;20107;-79
2022/03/25 01:35:09;;;;;;;23.73;12.50;;;2.60;99.90;;;;;;5054504;28;20021;-78
2022/03/25 01:37:35;;;;;;;17.70;10.73;;;2.60;99.90;;;;;;5054507;28;20032;-78
2022/03/25 01:40:00;;;;;;;20.27;11.57;;;2.50;99.90;;;;;;5054849;28;20036;-79
2022/03/25 01:42:34;;;;;;;18.10;11.87;;;2.50;99.90;;;;;;5054835;28;20025;-78
2022/03/25 01:45:01;;;;;;;18.10;11.57;;;2.50;99.90;;;;;;5053435;28;20096;-78
2022/03/25 01:47:28;;;;;;;17.40;10.90;;;2.50;99.90;;;;;;5054647;28;20044;-78
2022/03/25 01:49:57;;;;;;;17.53;10.70;;;2.50;99.90;;;;;;5054806;28;20021;-79
2022/03/25 01:52:24;;;;;;;14.87;10.27;;;2.50;99.90;;;;;;5053548;28;20035;-77
2022/03/25 01:54:49;;;;;;;16.10;10.47;;;2.50;99.90;;;;;;5054540;28;20465;-77
2022/03/25 01:57:15;;;;;;;18.10;10.07;;;2.50;99.90;;;;;;5054040;28;20051;-77
2022/03/25 01:59:41;;;;;;;19.73;10.90;;;2.50;99.90;;;;;;5050128;28;20033;-77
2022/03/25 02:02:07;;;;;;;18.20;10.80;;;2.40;99.90;;;;;;5054353;28;20021;-77
2022/03/25 02:04:33;;;;;;;16.93;10.90;;;2.50;99.90;;;;;;5054273;28;20029;-77
2022/03/25 02:06:59;;;;;;;21.53;11.43;;;2.40;99.90;;;;;;5052731;28;20312;-78
2022/03/25 02:09:28;;;;;;;20.60;11.33;;;2.40;99.90;;;;;;5054312;28;20025;-78
2022/03/25 02:11:55;;;;;;;18.77;10.93;;;2.40;99.90;;;;;;5052584;28;20040;-78
2022/03/25 02:14:21;;;;;;;18.03;11.00;;;2.40;99.90;;;;;;5052816;28;20021;-79
2022/03/25 02:16:48;;;;;;;16.87;11.10;;;2.40;99.90;;;;;;5052324;28;20025;-78
2022/03/25 02:19:19;;;;;;;17.53;10.57;;;2.30;99.90;;;;;;5053928;28;20037;-78
2022/03/25 02:21:46;;;;;;;16.63;10.70;;;2.30;99.90;;;;;;5053727;28;20423;-79
2022/03/25 02:24:15;;;;;;;16.60;10.67;;;2.40;99.90;;;;;;5053058;28;20394;-78
2022/03/25 02:26:42;;;;;;;20.17;10.97;;;2.30;99.90;;;;;;5053616;28;20048;-78
2022/03/25 02:29:10;;;;;;;18.33;11.50;;;2.30;99.90;;;;;;5052829;28;20040;-79
2022/03/25 02:31:36;;;;;;;23.37;11.17;;;2.30;99.90;;;;;;5052567;28;20039;-78
2022/03/25 02:34:08;;;;;;;19.17;10.43;;;2.20;99.90;;;;;;5052781;28;20029;-79
2022/03/25 02:36:41;;;;;;;17.80;11.03;;;2.20;99.90;;;;;;5053578;28;20025;-78
2022/03/25 02:39:08;;;;;;;19.60;11.37;;;2.10;99.90;;;;;;5053923;28;20082;-78
2022/03/25 02:41:34;;;;;;;21.20;11.07;;;2.10;99.90;;;;;;5053530;28;20037;-78
2022/03/25 02:44:00;;;;;;;20.37;12.23;;;2.00;99.90;;;;;;5052262;28;20380;-79
2022/03/25 02:46:28;;;;;;;20.33;11.67;;;1.90;99.90;;;;;;5051566;28;20041;-78
2022/03/25 02:48:54;;;;;;;17.10;10.80;;;1.90;99.90;;;;;;5053569;28;20053;-78
2022/03/25 02:51:20;;;;;;;18.33;10.77;;;1.80;99.90;;;;;;5051797;28;20117;-77
2022/03/25 02:53:45;;;;;;;18.30;10.97;;;1.80;99.90;;;;;;5053022;28;20029;-77
2022/03/25 02:56:11;;;;;;;18.30;11.27;;;1.80;99.90;;;;;;5052012;28;20036;-77
2022/03/25 02:58:39;;;;;;;20.07;11.50;;;1.80;99.90;;;;;;5044374;28;20091;-77
2022/03/25 03:01:06;;;;;;;17.93;10.83;;;1.70;99.90;;;;;;5047995;28;20035;-77
2022/03/25 03:03:34;;;;;;;17.93;11.17;;;1.70;99.90;;;;;;5053157;28;20025;-77
2022/03/25 03:06:00;;;;;;;20.57;12.20;;;1.70;99.90;;;;;;5052820;28;20059;-77
2022/03/25 03:08:27;;;;;;;16.37;11.50;;;1.60;99.90;;;;;;5052160;28;20029;-77
2022/03/25 03:10:53;;;;;;;19.87;11.47;;;1.60;99.90;;;;;;5052322;28;20029;-77
2022/03/25 03:13:20;;;;;;;17.40;10.57;;;1.60;99.90;;;;;;5052512;28;20535;-77
2022/03/25 03:15:47;;;;;;;18.37;11.50;;;1.60;99.90;;;;;;5052134;28;20028;-77
2022/03/25 03:18:13;;;;;;;17.53;11.13;;;1.50;99.90;;;;;;5052687;28;20039;-78
2022/03/25 03:20:38;;;;;;;23.13;10.63;;;1.50;99.90;;;;;;5052711;28;20028;-79
2022/03/25 03:23:05;;;;;;;16.73;10.93;;;1.50;99.90;;;;;;5052264;28;20517;-79
2022/03/25 03:25:31;;;;;;;21.17;11.73;;;1.40;99.90;;;;;;5052167;28;20055;-78
2022/03/25 03:27:57;;;;;;;19.77;11.67;;;1.40;99.90;;;;;;5052440;28;20619;-78
2022/03/25 03:30:22;;;;;;;20.77;10.87;;;1.40;99.90;;;;;;5051096;28;20032;-79
2022/03/25 03:32:54;;;;;;;22.03;11.17;;;1.40;99.90;;;;;;5052710;28;20109;-79
2022/03/25 03:35:20;;;;;;;19.27;11.03;;;1.30;99.90;;;;;;5052909;28;20032;-79
2022/03/25 03:37:46;;;;;;;17.37;10.07;;;1.30;99.90;;;;;;5052482;28;20029;-79
2022/03/25 03:40:17;;;;;;;16.73;10.33;;;1.30;99.90;;;;;;5052447;28;20040;-79
2022/03/25 03:42:44;;;;;;;19.43;10.80;;;1.20;99.90;;;;;;5050194;28;20028;-79
2022/03/25 03:45:10;;;;;;;20.47;9.53;;;1.10;99.90;;;;;;5052233;28;20364;-78
2022/03/25 03:47:36;;;;;;;18.30;10.10;;;1.20;99.90;;;;;;5052091;28;20520;-78
2022/03/25 03:50:04;;;;;;;19.17;10.57;;;1.10;99.90;;;;;;5052312;28;20031;-78
2022/03/25 03:52:30;;;;;;;19.13;11.80;;;1.10;99.90;;;;;;5052012;28;20274;-78
2022/03/25 03:54:56;;;;;;;16.10;10.27;;;1.10;99.90;;;;;;5051930;28;20106;-79
2022/03/25 03:57:22;;;;;;;17.30;10.43;;;1.00;99.90;;;;;;5048858;28;20478;-78
2022/03/25 03:59:47;;;;;;;17.63;10.80;;;1.00;99.90;;;;;;5038786;28;20029;-79
2022/03/25 04:02:13;;;;;;;19.23;11.17;;;1.00;99.90;;;;;;5052087;28;20040;-78
2022/03/25 04:04:38;;;;;;;22.13;10.70;;;0.90;99.90;;;;;;5051723;28;20025;-78
2022/03/25 04:07:04;;;;;;;16.97;11.17;;;0.90;99.90;;;;;;5051862;28;20060;-78
2022/03/25 04:09:30;;;;;;;20.90;11.17;;;0.90;99.90;;;;;;5051827;28;20032;-78
2022/03/25 04:11:55;;;;;;;19.13;11.50;;;0.90;99.90;;;;;;5051849;28;20135;-78
2022/03/25 04:14:21;;;;;;;15.77;10.20;;;0.90;99.90;;;;;;5052003;28;20028;-78
2022/03/25 04:16:47;;;;;;;15.63;11.00;;;0.90;99.90;;;;;;5050334;28;20033;-78
2022/03/25 04:19:14;;;;;;;20.03;11.17;;;0.90;99.90;;;;;;5050495;28;20037;-78
2022/03/25 04:21:39;;;;;;;23.10;12.00;;;0.90;99.90;;;;;;5051894;28;20037;-78
2022/03/25 04:24:05;;;;;;;17.87;10.90;;;0.90;99.90;;;;;;5050472;28;20083;-78
2022/03/25 04:26:31;;;;;;;18.20;11.00;;;0.90;99.90;;;;;;5050124;28;20051;-78
2022/03/25 04:28:57;;;;;;;18.43;11.93;;;0.90;99.90;;;;;;5052105;28;20454;-78
2022/03/25 04:31:23;;;;;;;22.90;12.07;;;1.00;99.90;;;;;;5051823;28;20071;-79
2022/03/25 04:33:48;;;;;;;22.83;12.00;;;1.00;99.90;;;;;;5051871;28;20415;-79
2022/03/25 04:36:14;;;;;;;20.43;11.23;;;0.90;99.90;;;;;;5051475;28;20824;-78
2022/03/25 04:38:41;;;;;;;20.23;11.37;;;0.90;99.90;;;;;;5051685;28;20112;-78
2022/03/25 04:41:09;;;;;;;21.50;12.27;;;0.90;99.90;;;;;;5051634;28;20482;-79
2022/03/25 04:43:36;;;;;;;17.30;10.90;;;0.90;99.90;;;;;;5051750;28;20021;-78
2022/03/25 04:46:01;;;;;;;20.00;12.13;;;0.90;99.90;;;;;;5051057;28;20049;-79
2022/03/25 04:48:27;;;;;;;20.10;11.87;;;0.80;99.90;;;;;;5066447;28;20473;-78
2022/03/25 04:50:53;;;;;;;21.23;11.47;;;0.80;99.90;;;;;;5050906;28;20029;-77
2022/03/25 04:53:18;;;;;;;22.67;10.90;;;0.80;99.90;;;;;;5051373;28;20103;-77
2022/03/25 04:55:44;;;;;;;22.27;12.23;;;0.80;99.90;;;;;;5051132;28;20025;-77
2022/03/25 04:58:10;;;;;;;19.13;10.83;;;0.80;99.90;;;;;;5049788;28;20162;-78
2022/03/25 05:00:37;;;;;;;23.93;11.63;;;0.80;99.90;;;;;;5055172;28;20056;-78
2022/03/25 05:03:03;;;;;;;20.57;11.33;;;0.80;99.90;;;;;;5055381;28;20041;-78
2022/03/25 05:05:28;;;;;;;22.63;11.70;;;0.80;99.90;;;;;;5055424;28;20096;-78
2022/03/25 05:07:54;;;;;;;20.10;11.77;;;0.80;99.90;;;;;;5055332;28;20029;-77
2022/03/25 05:10:20;;;;;;;19.57;12.77;;;0.80;99.90;;;;;;5055267;28;20057;-78
2022/03/25 05:12:45;;;;;;;18.53;11.93;;;0.90;99.90;;;;;;5056835;28;20021;-78
2022/03/25 05:15:11;;;;;;;25.03;12.77;;;0.90;99.90;;;;;;5060797;28;20351;-78
2022/03/25 05:17:48;;;;;;;23.37;12.53;;;0.90;99.90;;;;;;5073981;28;20024;-78
2022/03/25 05:20:15;;;;;;;19.60;11.77;;;1.00;99.90;;;;;;5058950;28;20025;-77
2022/03/25 05:22:42;;;;;;;22.97;11.87;;;1.00;99.90;;;;;;5058749;28;20040;-77
2022/03/25 05:25:08;;;;;;;23.83;12.40;;;1.00;99.90;;;;;;5056686;28;20048;-77
2022/03/25 05:27:46;;;;;;;22.63;12.00;;;1.10;99.90;;;;;;5069228;28;20091;-77
2022/03/25 05:30:12;;;;;;;23.17;12.53;;;1.10;99.90;;;;;;5061798;28;20501;-77
2022/03/25 05:32:39;;;;;;;20.27;11.90;;;1.10;99.90;;;;;;5054113;28;20032;-77
2022/03/25 05:35:06;;;;;;;18.30;11.07;;;1.10;99.90;;;;;;5055563;28;20405;-77
2022/03/25 05:37:32;;;;;;;21.33;11.73;;;1.20;99.90;;;;;;5059001;28;20473;-76
2022/03/25 05:39:59;;;;;;;23.00;11.43;;;1.30;99.90;;;;;;5058118;28;20100;-77
2022/03/25 05:42:25;;;;;;;24.27;12.27;;;1.30;99.90;;;;;;5063549;28;20047;-78
2022/03/25 05:44:51;;;;;;;22.33;11.70;;;1.40;99.90;;;;;;5060394;28;20540;-78
2022/03/25 05:47:16;;;;;;;24.70;12.03;;;1.50;99.90;;;;;;5063192;28;20136;-78
2022/03/25 05:49:42;;;;;;;19.60;10.93;;;1.50;99.90;;;;;;5064175;28;20021;-78
2022/03/25 05:52:08;;;;;;;21.10;12.13;;;1.60;99.90;;;;;;5058342;28;20107;-78
2022/03/25 05:54:33;;;;;;;20.47;12.23;;;1.70;99.90;;;;;;5059217;28;20025;-78
2022/03/25 05:56:59;;;;;;;33.30;12.27;;;1.80;99.90;;;;;;5052048;28;20028;-79
2022/03/25 05:59:25;;;;;;;45.77;12.67;;;1.90;99.90;;;;;;5053600;28;20373;-78
2022/03/25 06:01:50;;;;;;;35.63;13.00;;;1.90;99.90;;;;;;5059250;28;20021;-79
2022/03/25 06:04:16;;;;;;;29.37;11.70;;;2.00;99.90;;;;;;5061505;28;20025;-79
2022/03/25 06:06:41;;;;;;;18.40;11.80;;;2.10;99.90;;;;;;5055367;28;20139;-79
2022/03/25 06:09:07;;;;;;;24.53;12.33;;;2.20;99.90;;;;;;5051428;28;20036;-79
2022/03/25 06:11:32;;;;;;;22.03;12.73;;;2.20;99.90;;;;;;5057435;28;20037;-77
2022/03/25 06:13:58;;;;;;;19.13;12.77;;;2.30;99.90;;;;;;5054998;28;20024;-76
2022/03/25 06:16:23;;;;;;;19.63;12.93;;;2.40;99.90;;;;;;5054999;28;20017;-76
2022/03/25 06:18:49;;;;;;;25.13;14.43;;;2.60;99.90;;;;;;5053843;28;20052;-77
2022/03/25 06:21:16;;;;;;;22.03;12.60;;;2.70;99.90;;;;;;5054544;28;20106;-77
2022/03/25 06:23:42;;;;;;;21.50;12.80;;;2.80;99.90;;;;;;5053865;28;20024;-78
2022/03/25 06:26:08;;;;;;;25.40;13.30;;;2.90;99.90;;;;;;5053153;28;20027;-78
2022/03/25 06:28:33;;;;;;;20.90;12.40;;;3.00;99.90;;;;;;5053579;28;20035;-78
2022/03/25 06:30:59;;;;;;;23.83;13.60;;;3.10;99.90;;;;;;5054885;28;20029;-78
2022/03/25 06:33:25;;;;;;;20.13;11.40;;;3.20;99.90;;;;;;5068915;28;20028;-77
2022/03/25 06:35:53;;;;;;;20.70;13.60;;;3.20;99.90;;;;;;5053287;28;20029;-77
2022/03/25 06:38:19;;;;;;;22.73;12.70;;;3.30;99.90;;;;;;5053525;28;20457;-77
2022/03/25 06:40:45;;;;;;;19.13;13.00;;;3.40;99.90;;;;;;5054580;28;20028;-77
2022/03/25 06:43:10;;;;;;;20.90;12.93;;;3.50;99.90;;;;;;5054486;28;20024;-77
2022/03/25 06:45:36;;;;;;;23.30;14.30;;;3.50;99.90;;;;;;5053544;28;20025;-78
2022/03/25 06:48:02;;;;;;;21.53;13.10;;;3.60;99.90;;;;;;5053640;28;20079;-78
2022/03/25 06:50:28;;;;;;;20.87;12.30;;;3.70;99.90;;;;;;5053838;28;20029;-78
2022/03/25 06:52:54;;;;;;;20.30;13.17;;;3.80;99.90;;;;;;5053930;28;20020;-77
2022/03/25 06:55:20;;;;;;;17.53;12.20;;;3.90;99.90;;;;;;5054164;28;20024;-77
2022/03/25 06:57:50;;;;;;;21.77;13.40;;;4.10;99.90;;;;;;5053603;28;20063;-77
2022/03/25 07:00:17;;;;;;;21.53;12.77;;;4.20;99.90;;;;;;5053790;28;20044;-77
2022/03/25 07:02:43;;;;;;;24.03;13.07;;;4.30;99.90;;;;;;5052580;28;20024;-77
2022/03/25 07:05:12;;;;;;;23.87;12.43;;;4.50;99.90;;;;;;5052340;28;20496;-77
2022/03/25 07:07:40;;;;;;;20.97;12.20;;;4.60;99.90;;;;;;5053050;28;20035;-77
2022/03/25 07:10:09;;;;;;;19.77;12.60;;;4.80;99.90;;;;;;5050653;28;20028;-77
2022/03/25 07:12:38;;;;;;;22.43;13.20;;;4.90;99.90;;;;;;5052124;28;20364;-77
2022/03/25 07:15:05;;;;;;;21.23;13.07;;;5.20;99.90;;;;;;5053523;28;20026;-76
2022/03/25 07:17:31;;;;;;;18.77;12.77;;;5.30;99.90;;;;;;5047848;28;20728;-79
2022/03/25 07:19:57;;;;;;;22.50;13.03;;;5.40;99.90;;;;;;5048469;28;20112;-79
2022/03/25 07:22:22;;;;;;;24.33;13.50;;;5.50;99.90;;;;;;5063807;28;20025;-79
2022/03/25 07:24:48;;;;;;;22.93;13.40;;;5.60;99.90;;;;;;5047202;28;20398;-79
2022/03/25 07:27:13;;;;;;;25.60;14.30;;;5.70;99.90;;;;;;5064418;28;20758;-79
2022/03/25 07:29:39;;;;;;;20.00;13.63;;;5.90;99.90;;;;;;5048672;28;20622;-77
2022/03/25 07:32:05;;;;;;;27.17;14.40;;;6.00;99.90;;;;;;5048670;28;20134;-79
2022/03/25 07:34:31;;;;;;;23.30;13.37;;;6.20;99.90;;;;;;5046929;28;20474;-78
2022/03/25 07:36:57;;;;;;;27.03;13.93;;;6.40;99.90;;;;;;5066193;28;20017;-83
2022/03/25 07:39:23;;;;;;;21.07;14.33;;;6.50;99.90;;;;;;5058875;28;20117;-83
2022/03/25 07:41:49;;;;;;;21.03;13.47;;;6.70;99.90;;;;;;5053387;28;20024;-78
2022/03/25 07:44:14;;;;;;;22.53;14.53;;;6.90;99.90;;;;;;5053153;28;20512;-78
2022/03/25 07:46:40;;;;;;;27.33;16.73;;;7.10;99.90;;;;;;5051554;28;20053;-78
2022/03/25 07:49:06;;;;;;;25.63;15.70;;;7.20;99.90;;;;;;5053091;28;20021;-78
2022/03/25 07:51:32;;;;;;;27.30;15.73;;;7.30;99.90;;;;;;5052866;28;20391;-78
2022/03/25 07:53:57;;;;;;;23.73;15.67;;;7.50;99.90;;;;;;5052742;28;20029;-78
2022/03/25 07:56:23;;;;;;;24.60;16.37;;;7.60;99.90;;;;;;5051252;28;20025;-78
2022/03/25 07:58:49;;;;;;;25.93;16.47;;;7.80;99.90;;;;;;5052416;28;20105;-78
2022/03/25 08:01:15;;;;;;;27.73;16.60;;;7.90;99.90;;;;;;5052641;28;20100;-78
2022/03/25 08:03:41;;;;;;;25.63;17.17;;;8.00;99.90;;;;;;5050098;28;20031;-79
2022/03/25 08:06:07;;;;;;;27.80;17.10;;;8.20;99.90;;;;;;5051851;28;20021;-77
2022/03/25 08:08:34;;;;;;;28.47;16.13;;;8.30;99.90;;;;;;5052609;28;20161;-77
2022/03/25 08:11:03;;;;;;;30.87;16.47;;;8.50;99.90;;;;;;5051484;28;20036;-80
2022/03/25 08:13:30;;;;;;;30.03;17.20;;;8.70;99.90;;;;;;5051053;28;20052;-76
2022/03/25 08:15:55;;;;;;;28.13;17.10;;;8.80;99.90;;;;;;5052191;28;20426;-76
2022/03/25 08:18:21;;;;;;;29.23;17.17;;;8.90;99.90;;;;;;5052475;28;20075;-78
2022/03/25 08:20:48;;;;;;;30.50;18.67;;;9.00;99.90;;;;;;5050883;28;20029;-78
2022/03/25 08:28:48;;;;;;;30.08;17.30;;;9.40;99.90;;;;;;5051400;28;20382;-78
2022/03/25 08:31:15;;;;;;;28.03;17.03;;;9.50;99.90;;;;;;5051601;28;20025;-77
2022/03/25 08:33:41;;;;;;;24.17;16.97;;;9.60;99.90;;;;;;5051995;28;20128;-78
2022/03/25 08:36:06;;;;;;;29.77;17.73;;;9.80;99.90;;;;;;5051786;28;20055;-78
2022/03/25 08:38:32;;;;;;;24.30;17.87;;;9.90;99.90;;;;;;5051800;28;20394;-77
2022/03/25 08:40:57;;;;;;;28.53;17.50;;;10.00;99.90;;;;;;5051725;28;20060;-77
2022/03/25 08:43:23;;;;;;;26.30;17.10;;;10.10;99.90;;;;;;5051221;28;20025;-78
2022/03/25 08:45:48;;;;;;;28.60;18.67;;;10.20;99.90;;;;;;5049278;28;20021;-78
2022/03/25 08:48:14;;;;;;;30.67;19.10;;;10.30;99.90;;;;;;5050940;28;20086;-78
2022/03/25 08:50:40;;;;;;;27.63;18.80;;;10.40;99.90;;;;;;5050210;28;20056;-78
2022/03/25 08:53:06;;;;;;;33.33;20.00;;;10.50;99.90;;;;;;5050047;28;20401;-78
2022/03/25 08:55:31;;;;;;;31.07;18.00;;;10.70;99.90;;;;;;5049070;28;20191;-78
2022/03/25 08:57:57;;;;;;;29.30;19.30;;;10.80;99.90;;;;;;5043320;28;20168;-78
2022/03/25 09:00:23;;;;;;;28.20;19.55;;;11.10;99.90;;;;;;5038797;28;20036;-78
2022/03/25 09:02:49;;;;;;;29.95;17.75;;;11.30;99.90;;;;;;5046937;28;20029;-78
2022/03/25 09:05:15;;;;;;;30.45;18.10;;;11.60;99.70;;;;;;5051189;28;20366;-79
2022/03/25 09:07:42;;;;;;;31.85;19.40;;;11.80;98.30;;;;;;5050316;28;20029;-79
2022/03/25 09:10:09;;;;;;;26.88;18.45;;;12.00;97.60;;;;;;5050260;28;20091;-77
2022/03/25 09:12:35;;;;;;;26.35;18.67;;;12.40;95.90;;;;;;5050161;28;20108;-78
2022/03/25 09:15:03;;;;;;;28.67;20.33;;;12.60;94.90;;;;;;5049445;28;20480;-78
2022/03/25 09:17:29;;;;;;;30.88;19.77;;;12.90;92.20;;;;;;5049943;28;20024;-77
2022/03/25 09:19:54;;;;;;;32.70;20.17;;;12.90;92.80;;;;;;5050915;28;20029;-77
2022/03/25 09:22:20;;;;;;;27.73;19.58;;;13.30;92.90;;;;;;5050920;28;20017;-77
2022/03/25 09:24:46;;;;;;;27.95;20.05;;;13.20;92.10;;;;;;5051229;28;20052;-77
2022/03/25 09:27:12;;;;;;;29.10;19.17;;;13.30;93.60;;;;;;5050995;28;20021;-77
2022/03/25 09:29:37;;;;;;;27.27;19.33;;;13.80;91.20;;;;;;5050635;28;20032;-77
2022/03/25 09:32:04;;;;;;;29.40;19.73;;;14.20;90.60;;;;;;5049681;28;20025;-78
2022/03/25 09:37:14;;;;;;;29.50;19.07;;;14.90;85.60;;;;;;5051658;28;20028;-78
2022/03/25 09:39:39;;;;;;;27.33;19.52;;;15.20;85.10;;;;;;5053183;28;20017;-78
2022/03/25 09:42:06;;;;;;;27.25;19.70;;;15.40;83.60;;;;;;5050456;28;20033;-78
2022/03/25 09:44:33;;;;;;;26.38;18.70;;;15.50;81.50;;;;;;5052209;28;20079;-77
2022/03/25 09:47:00;;;;;;;29.83;19.88;;;16.00;79.70;;;;;;5053657;28;20056;-79
2022/03/25 09:49:25;;;;;;;30.70;21.02;;;15.60;81.00;;;;;;5055549;28;20107;-78
2022/03/25 09:51:51;;;;;;;28.77;20.40;;;16.10;77.90;;;;;;5053916;28;20115;-78
2022/03/25 09:54:17;;;;;;;29.85;19.98;;;16.40;77.00;;;;;;5053869;28;20528;-76
2022/03/25 09:56:44;;;;;;;30.10;21.63;;;16.80;75.70;;;;;;5054162;28;20296;-78
2022/03/25 09:59:17;;;;;;;29.70;21.80;;;16.60;75.10;;;;;;5053727;28;20327;-78
2022/03/25 10:01:42;;;;;;;36.70;22.80;;;16.40;76.90;;;;;;5055293;28;20044;-75
2022/03/25 10:04:08;;;;;;;34.83;22.27;;;17.00;75.70;;;;;;5055159;28;20466;-78
2022/03/25 10:06:48;;;;;;;30.95;22.70;;;17.30;73.30;;;;;;5052175;28;20117;-79
2022/03/25 10:09:21;;;;;;;34.08;22.45;;;17.40;73.00;;;;;;5042847;28;20742;-79
2022/03/25 10:11:47;;;;;;;35.13;22.90;;;17.40;74.50;;;;;;5051723;28;20028;-79
2022/03/25 10:14:23;;;;;;;32.15;22.23;;;18.00;70.20;;;;;;5050727;28;20422;-76
2022/03/25 10:16:53;;;;;;;31.55;22.42;;;18.10;71.00;;;;;;5053666;28;20056;-77
2022/03/25 10:19:23;;;;;;;30.52;22.33;;;17.50;72.00;;;;;;5054098;28;20021;-76
2022/03/25 10:21:56;;;;;;;30.55;22.42;;;17.60;72.10;;;;;;5052187;28;20025;-77
2022/03/25 10:24:53;;;;;;;32.72;21.67;;;18.20;69.00;;;;;;5053587;28;20079;-77
2022/03/25 10:27:21;;;;;;;38.72;23.27;;;18.50;68.60;;;;;;5053308;28;20033;-77
2022/03/25 10:29:47;;;;;;;30.63;22.80;;;18.30;64.30;;;;;;5052448;28;20079;-76
2022/03/25 10:32:15;;;;;;;37.90;25.45;;;18.20;69.30;;;;;;5052076;28;20033;-77
2022/03/25 10:34:43;;;;;;;37.70;23.70;;;18.80;66.20;;;;;;5052948;28;20112;-77
2022/03/25 10:37:14;;;;;;;38.17;24.15;;;18.80;66.50;;;;;;5052431;28;20051;-76
2022/03/25 10:39:51;;;;;;;28.95;22.20;;;19.20;64.40;;;;;;5053886;28;20027;-76
2022/03/25 10:42:17;;;;;;;38.78;23.92;;;19.60;62.00;;;;;;5053100;28;20032;-77
2022/03/25 10:44:43;;;;;;;33.30;23.67;;;19.60;62.80;;;;;;5053099;28;20096;-76
2022/03/25 10:47:29;;;;;;;33.03;24.60;;;20.10;59.50;;;;;;5053540;28;20386;-77
2022/03/25 10:50:12;;;;;;;29.65;23.50;;;19.20;60.00;;;;;;5053592;28;20028;-77
2022/03/25 10:52:38;;;;;;;33.33;22.60;;;18.90;62.00;;;;;;5034334;28;20037;-77
2022/03/25 10:55:23;;;;;;;33.47;24.23;;;19.50;61.20;;;;;;5051864;28;20047;-77
2022/03/25 10:57:55;;;;;;;36.60;25.33;;;19.60;63.30;;;;;;5052907;28;20029;-77
2022/03/25 11:00:22;;;;;;;36.17;24.00;;;19.90;61.00;;;;;;5052983;28;20410;-77
2022/03/25 11:02:48;;;;;;;31.92;23.23;;;19.50;63.00;;;;;;5050626;28;20028;-71
2022/03/25 11:05:14;;;;;;;31.02;21.85;;;19.70;61.30;;;;;;5049672;28;20020;-69
2022/03/25 11:07:48;;;;;;;30.67;22.45;;;20.00;57.50;;;;;;5051003;28;20048;-69
2022/03/25 11:10:19;;;;;;;36.72;23.23;;;19.70;58.70;;;;;;5052025;28;20048;-69
2022/03/25 11:12:47;;;;;;;32.05;22.92;;;19.90;58.20;;;;;;5052242;28;20029;-69
2022/03/25 11:15:15;;;;;;;32.40;23.27;;;19.60;58.00;;;;;;5051859;28;20040;-69
2022/03/25 11:17:42;;;;;;;30.23;22.25;;;19.90;57.40;;;;;;5052080;28;20021;-69
2022/03/25 11:20:13;;;;;;;29.67;22.52;;;20.00;56.60;;;;;;5052303;28;20386;-69
2022/03/25 11:22:51;;;;;;;34.30;21.83;;;20.20;56.60;;;;;;5052058;28;20128;-69
2022/03/25 11:25:23;;;;;;;29.92;22.10;;;20.20;55.80;;;;;;5037245;28;20025;-70
2022/03/25 11:28:11;;;;;;;27.05;20.48;;;20.20;55.40;;;;;;5050030;28;20099;-69
2022/03/25 11:30:38;;;;;;;35.55;22.58;;;20.40;55.40;;;;;;5046860;28;20037;-70
2022/03/25 11:33:06;;;;;;;31.52;22.85;;;20.40;55.00;;;;;;5051928;28;20108;-69
2022/03/25 11:35:34;;;;;;;31.63;21.48;;;20.20;56.00;;;;;;5051348;28;20044;-70
2022/03/25 11:38:12;;;;;;;27.00;20.02;;;20.20;56.30;;;;;;5051756;28;20048;-71
2022/03/25 11:40:39;;;;;;;25.23;19.30;;;20.40;52.80;;;;;;5031386;28;20033;-71
2022/03/25 11:43:20;;;;;;;33.60;22.58;;;20.70;51.30;;;;;;5050703;28;20021;-72
2022/03/25 11:46:06;;;;;;;25.05;19.88;;;20.60;54.80;;;;;;5046236;28;20085;-70
2022/03/25 11:48:34;;;;;;;25.58;19.38;;;20.90;51.00;;;;;;5051187;28;20033;-73
2022/03/25 11:51:00;;;;;;;27.52;20.48;;;20.70;51.70;;;;;;5051081;28;20402;-72
2022/03/25 11:53:25;;;;;;;29.73;21.42;;;20.40;52.50;;;;;;5049745;28;20048;-73
2022/03/25 11:56:01;;;;;;;30.15;20.95;;;20.80;53.60;;;;;;5051068;28;20466;-72
2022/03/25 11:58:33;;;;;;;27.77;20.10;;;21.30;52.20;;;;;;5046509;28;20128;-71
2022/03/25 12:01:16;;;;;;;26.77;20.63;;;21.50;49.40;;;;;;5049556;28;20028;-71
2022/03/25 12:04:00;;;;;;;29.15;22.05;;;21.70;50.10;;;;;;5047095;28;20028;-71
2022/03/25 12:06:28;;;;;;;24.60;17.50;;;21.20;50.20;;;;;;5048660;28;20021;-70
2022/03/25 12:09:15;;;;;;;30.10;18.08;;;21.50;48.10;;;;;;5050925;28;20373;-71
2022/03/25 12:11:53;;;;;;;25.98;18.60;;;21.30;49.90;;;;;;5048483;28;20032;-71
2022/03/25 12:14:32;;;;;;;24.33;19.85;;;21.70;48.70;;;;;;5047778;28;20048;-71
2022/03/25 12:17:07;;;;;;;24.92;19.20;;;21.20;49.80;;;;;;5058459;28;20020;-71
2022/03/25 12:19:38;;;;;;;28.85;20.85;;;21.00;49.80;;;;;;5041437;28;20078;-71
2022/03/25 12:22:25;;;;;;;28.48;21.85;;;21.10;50.60;;;;;;5050250;28;20027;-71
2022/03/25 12:24:58;;;;;;;25.52;19.38;;;21.70;50.50;;;;;;5055108;28;20024;-74
2022/03/25 12:27:25;;;;;;;23.25;18.83;;;21.80;49.50;;;;;;5062576;28;20389;-73
2022/03/25 12:29:53;;;;;;;30.63;19.15;;;21.70;48.30;;;;;;5057377;28;20085;-74
2022/03/25 12:32:21;;;;;;;27.27;20.92;;;21.90;48.10;;;;;;5061567;28;20036;-74
2022/03/25 12:34:58;;;;;;;27.23;19.85;;;22.30;46.80;;;;;;5052650;28;20032;-73
2022/03/25 12:38:03;;;;;;;21.02;17.75;;;22.30;46.60;;;;;;5056021;28;20034;-73
2022/03/25 12:40:32;;;;;;;25.08;17.70;;;22.50;45.70;;;;;;5043801;28;20033;-74
2022/03/25 12:42:59;;;;;;;22.85;18.08;;;22.70;45.20;;;;;;5051243;28;20052;-73